Holtson Crossroads, South Carolina
Current Conditions -  °F | °C
As of 7:15 PM on Thursday 27 Nov 2014 (Local Time) from KAIK Reporting Station
Clear Clear  
Wind Chill: 37°   Ceiling: Unl
Heat Index: 43°   Visibility: 10mi
Dew Point: 30°   Wind: 9mph
Humidity: 61%   Direction: 280°W
Pressure: 30.28"   Gusts: NA
Location:  33.9549°N, 81.564°W
Report Text: KAIK 280015Z AUTO 28008KT 10SM CLR 06/M01 A3028 RMK AO2 PNO
Loading
Personal Weather Stations






























Interactive Weather Map New forecast layout! Learn more

10-Day Weather Forecast

Advertisements
Track Severe Weather on mobile